sensor_id;sensor_type;location;lat;lon;timestamp;temperature;humidity
83142;DHT22;75194;51.180;5.972;2024-02-15T00:00:51;11.80;88.10
83142;DHT22;75194;51.180;5.972;2024-02-15T00:03:16;11.80;87.90
83142;DHT22;75194;51.180;5.972;2024-02-15T00:05:44;11.80;87.90
83142;DHT22;75194;51.180;5.972;2024-02-15T00:08:09;11.80;87.60
83142;DHT22;75194;51.180;5.972;2024-02-15T00:10:35;11.80;87.50
83142;DHT22;75194;51.180;5.972;2024-02-15T00:13:00;11.80;87.50
83142;DHT22;75194;51.180;5.972;2024-02-15T00:15:26;11.90;87.30
83142;DHT22;75194;51.180;5.972;2024-02-15T00:17:52;11.90;87.20
83142;DHT22;75194;51.180;5.972;2024-02-15T00:20:17;11.90;87.10
83142;DHT22;75194;51.180;5.972;2024-02-15T00:22:43;11.90;87.00
83142;DHT22;75194;51.180;5.972;2024-02-15T00:25:09;11.90;86.90
83142;DHT22;75194;51.180;5.972;2024-02-15T00:27:36;12.00;86.90
83142;DHT22;75194;51.180;5.972;2024-02-15T00:30:03;11.90;87.00
83142;DHT22;75194;51.180;5.972;2024-02-15T00:32:28;12.00;87.00
83142;DHT22;75194;51.180;5.972;2024-02-15T00:34:55;11.90;87.00
83142;DHT22;75194;51.180;5.972;2024-02-15T00:37:20;11.90;87.00
83142;DHT22;75194;51.180;5.972;2024-02-15T00:39:46;11.90;87.20
83142;DHT22;75194;51.180;5.972;2024-02-15T00:42:12;11.90;87.20
83142;DHT22;75194;51.180;5.972;2024-02-15T00:44:39;12.00;87.20
83142;DHT22;75194;51.180;5.972;2024-02-15T00:47:04;12.00;87.10
83142;DHT22;75194;51.180;5.972;2024-02-15T00:49:30;12.00;87.00
83142;DHT22;75194;51.180;5.972;2024-02-15T00:51:57;12.00;86.80
83142;DHT22;75194;51.180;5.972;2024-02-15T00:54:23;12.00;86.70
83142;DHT22;75194;51.180;5.972;2024-02-15T00:56:49;12.00;86.60
83142;DHT22;75194;51.180;5.972;2024-02-15T00:59:14;12.00;86.50
83142;DHT22;75194;51.180;5.972;2024-02-15T01:01:40;12.10;86.30
83142;DHT22;75194;51.180;5.972;2024-02-15T01:04:06;12.10;86.20
83142;DHT22;75194;51.180;5.972;2024-02-15T01:06:32;12.10;86.10
83142;DHT22;75194;51.180;5.972;2024-02-15T01:08:59;12.10;86.00
83142;DHT22;75194;51.180;5.972;2024-02-15T01:11:27;12.20;85.60
83142;DHT22;75194;51.180;5.972;2024-02-15T01:13:54;12.10;85.60
83142;DHT22;75194;51.180;5.972;2024-02-15T01:16:19;12.20;85.50
83142;DHT22;75194;51.180;5.972;2024-02-15T01:18:48;12.10;85.60
83142;DHT22;75194;51.180;5.972;2024-02-15T01:21:14;12.10;85.60
83142;DHT22;75194;51.180;5.972;2024-02-15T01:23:40;12.20;85.60
83142;DHT22;75194;51.180;5.972;2024-02-15T01:26:06;12.10;85.60
83142;DHT22;75194;51.180;5.972;2024-02-15T01:28:32;12.10;85.60
83142;DHT22;75194;51.180;5.972;2024-02-15T01:30:57;12.10;85.50
83142;DHT22;75194;51.180;5.972;2024-02-15T01:33:23;12.20;85.40
83142;DHT22;75194;51.180;5.972;2024-02-15T01:35:49;12.20;85.40
83142;DHT22;75194;51.180;5.972;2024-02-15T01:38:15;12.10;85.40
83142;DHT22;75194;51.180;5.972;2024-02-15T01:40:40;12.20;85.40
83142;DHT22;75194;51.180;5.972;2024-02-15T01:43:06;12.20;85.30
83142;DHT22;75194;51.180;5.972;2024-02-15T01:45:32;12.10;85.30
83142;DHT22;75194;51.180;5.972;2024-02-15T01:47:58;12.10;85.40
83142;DHT22;75194;51.180;5.972;2024-02-15T01:50:25;12.10;85.50
83142;DHT22;75194;51.180;5.972;2024-02-15T01:52:53;12.10;85.40
83142;DHT22;75194;51.180;5.972;2024-02-15T01:55:20;12.10;85.20
83142;DHT22;75194;51.180;5.972;2024-02-15T01:57:48;12.10;85.20
83142;DHT22;75194;51.180;5.972;2024-02-15T02:00:18;12.10;85.20
83142;DHT22;75194;51.180;5.972;2024-02-15T02:02:45;12.20;85.20
83142;DHT22;75194;51.180;5.972;2024-02-15T02:05:11;12.20;85.00
83142;DHT22;75194;51.180;5.972;2024-02-15T02:07:39;12.20;84.80
83142;DHT22;75194;51.180;5.972;2024-02-15T02:10:06;12.20;84.90
83142;DHT22;75194;51.180;5.972;2024-02-15T02:12:32;12.20;85.00
83142;DHT22;75194;51.180;5.972;2024-02-15T02:15:01;12.20;85.10
83142;DHT22;75194;51.180;5.972;2024-02-15T02:17:27;12.20;85.00
83142;DHT22;75194;51.180;5.972;2024-02-15T02:19:52;12.20;85.00
83142;DHT22;75194;51.180;5.972;2024-02-15T02:22:19;12.20;85.10
83142;DHT22;75194;51.180;5.972;2024-02-15T02:25:04;12.20;85.20
83142;DHT22;75194;51.180;5.972;2024-02-15T02:27:32;12.20;85.00
83142;DHT22;75194;51.180;5.972;2024-02-15T02:29:58;12.10;85.20
83142;DHT22;75194;51.180;5.972;2024-02-15T02:32:25;12.10;85.20
83142;DHT22;75194;51.180;5.972;2024-02-15T02:34:52;12.10;85.40
83142;DHT22;75194;51.180;5.972;2024-02-15T02:37:23;12.10;85.30
83142;DHT22;75194;51.180;5.972;2024-02-15T02:39:50;12.10;85.20
83142;DHT22;75194;51.180;5.972;2024-02-15T02:42:15;12.10;85.10
83142;DHT22;75194;51.180;5.972;2024-02-15T02:44:41;12.10;85.20
83142;DHT22;75194;51.180;5.972;2024-02-15T02:47:07;12.10;85.10
83142;DHT22;75194;51.180;5.972;2024-02-15T02:49:35;12.10;85.00
83142;DHT22;75194;51.180;5.972;2024-02-15T02:52:01;12.10;85.10
83142;DHT22;75194;51.180;5.972;2024-02-15T02:54:26;12.10;85.00
83142;DHT22;75194;51.180;5.972;2024-02-15T02:56:52;12.00;85.10
83142;DHT22;75194;51.180;5.972;2024-02-15T02:59:18;12.00;85.00
83142;DHT22;75194;51.180;5.972;2024-02-15T03:01:43;12.00;85.00
83142;DHT22;75194;51.180;5.972;2024-02-15T03:04:09;12.00;85.00
83142;DHT22;75194;51.180;5.972;2024-02-15T03:06:37;12.00;85.00
83142;DHT22;75194;51.180;5.972;2024-02-15T03:09:03;11.90;85.10
83142;DHT22;75194;51.180;5.972;2024-02-15T03:11:32;12.00;84.90
83142;DHT22;75194;51.180;5.972;2024-02-15T03:14:01;12.00;84.90
83142;DHT22;75194;51.180;5.972;2024-02-15T03:16:30;12.00;84.80
83142;DHT22;75194;51.180;5.972;2024-02-15T03:18:56;12.00;84.70
83142;DHT22;75194;51.180;5.972;2024-02-15T03:21:21;12.00;84.70
83142;DHT22;75194;51.180;5.972;2024-02-15T03:23:47;12.00;84.50
83142;DHT22;75194;51.180;5.972;2024-02-15T03:26:13;12.00;84.50
83142;DHT22;75194;51.180;5.972;2024-02-15T03:28:39;12.00;84.30
83142;DHT22;75194;51.180;5.972;2024-02-15T03:31:05;12.00;84.30
83142;DHT22;75194;51.180;5.972;2024-02-15T03:33:30;12.00;84.20
83142;DHT22;75194;51.180;5.972;2024-02-15T03:36:00;12.10;84.10
83142;DHT22;75194;51.180;5.972;2024-02-15T03:38:27;12.00;84.10
83142;DHT22;75194;51.180;5.972;2024-02-15T03:40:55;12.00;84.10
83142;DHT22;75194;51.180;5.972;2024-02-15T03:43:21;12.00;84.00
83142;DHT22;75194;51.180;5.972;2024-02-15T03:45:50;12.00;83.90
83142;DHT22;75194;51.180;5.972;2024-02-15T03:48:17;12.00;83.90
83142;DHT22;75194;51.180;5.972;2024-02-15T03:50:43;12.00;83.80
83142;DHT22;75194;51.180;5.972;2024-02-15T03:53:12;12.00;84.00
83142;DHT22;75194;51.180;5.972;2024-02-15T03:55:39;12.00;84.00
83142;DHT22;75194;51.180;5.972;2024-02-15T03:58:04;12.00;83.90
83142;DHT22;75194;51.180;5.972;2024-02-15T04:00:30;12.00;83.90
83142;DHT22;75194;51.180;5.972;2024-02-15T04:02:56;12.00;83.70
83142;DHT22;75194;51.180;5.972;2024-02-15T04:05:22;12.00;83.80
83142;DHT22;75194;51.180;5.972;2024-02-15T04:07:48;12.00;83.60
83142;DHT22;75194;51.180;5.972;2024-02-15T04:10:14;12.00;83.50
83142;DHT22;75194;51.180;5.972;2024-02-15T04:12:40;12.00;83.60
83142;DHT22;75194;51.180;5.972;2024-02-15T04:15:08;12.00;83.50
83142;DHT22;75194;51.180;5.972;2024-02-15T04:17:38;12.00;83.30
83142;DHT22;75194;51.180;5.972;2024-02-15T04:20:04;12.00;83.20
83142;DHT22;75194;51.180;5.972;2024-02-15T04:22:32;12.10;83.00
83142;DHT22;75194;51.180;5.972;2024-02-15T04:25:05;12.10;83.30
83142;DHT22;75194;51.180;5.972;2024-02-15T04:27:32;12.00;83.80
83142;DHT22;75194;51.180;5.972;2024-02-15T04:29:57;12.00;83.80
83142;DHT22;75194;51.180;5.972;2024-02-15T04:32:23;12.00;84.00
83142;DHT22;75194;51.180;5.972;2024-02-15T04:34:49;12.00;84.20
83142;DHT22;75194;51.180;5.972;2024-02-15T04:37:15;12.00;84.20
83142;DHT22;75194;51.180;5.972;2024-02-15T04:39:42;12.00;84.20
83142;DHT22;75194;51.180;5.972;2024-02-15T04:42:08;12.00;84.30
83142;DHT22;75194;51.180;5.972;2024-02-15T04:44:39;12.10;83.60
83142;DHT22;75194;51.180;5.972;2024-02-15T04:47:05;12.10;83.30
83142;DHT22;75194;51.180;5.972;2024-02-15T04:49:32;12.10;83.00
83142;DHT22;75194;51.180;5.972;2024-02-15T04:51:58;12.20;82.90
83142;DHT22;75194;51.180;5.972;2024-02-15T04:54:24;12.20;82.80
83142;DHT22;75194;51.180;5.972;2024-02-15T04:56:49;12.20;82.80
83142;DHT22;75194;51.180;5.972;2024-02-15T04:59:20;12.20;82.90
83142;DHT22;75194;51.180;5.972;2024-02-15T05:01:47;12.20;82.90
83142;DHT22;75194;51.180;5.972;2024-02-15T05:04:13;12.10;83.20
83142;DHT22;75194;51.180;5.972;2024-02-15T05:06:39;12.10;83.20
83142;DHT22;75194;51.180;5.972;2024-02-15T05:09:06;12.20;82.90
83142;DHT22;75194;51.180;5.972;2024-02-15T05:11:37;12.20;83.20
83142;DHT22;75194;51.180;5.972;2024-02-15T05:14:07;12.10;83.50
83142;DHT22;75194;51.180;5.972;2024-02-15T05:16:35;12.10;83.60
83142;DHT22;75194;51.180;5.972;2024-02-15T05:19:10;12.10;84.00
83142;DHT22;75194;51.180;5.972;2024-02-15T05:21:39;12.10;84.60
83142;DHT22;75194;51.180;5.972;2024-02-15T05:24:05;12.10;84.90
83142;DHT22;75194;51.180;5.972;2024-02-15T05:26:32;12.00;85.30
83142;DHT22;75194;51.180;5.972;2024-02-15T05:28:57;12.00;85.40
83142;DHT22;75194;51.180;5.972;2024-02-15T05:31:23;12.00;86.00
83142;DHT22;75194;51.180;5.972;2024-02-15T05:33:52;11.90;86.30
83142;DHT22;75194;51.180;5.972;2024-02-15T05:36:21;11.90;86.50
83142;DHT22;75194;51.180;5.972;2024-02-15T05:38:52;11.90;86.50
83142;DHT22;75194;51.180;5.972;2024-02-15T05:41:18;11.90;86.60
83142;DHT22;75194;51.180;5.972;2024-02-15T05:43:44;11.80;86.70
83142;DHT22;75194;51.180;5.972;2024-02-15T05:46:10;11.80;86.60
83142;DHT22;75194;51.180;5.972;2024-02-15T05:48:37;11.80;86.60
83142;DHT22;75194;51.180;5.972;2024-02-15T05:51:07;11.80;86.80
83142;DHT22;75194;51.180;5.972;2024-02-15T05:53:34;11.80;86.40
83142;DHT22;75194;51.180;5.972;2024-02-15T05:56:07;11.90;86.10
83142;DHT22;75194;51.180;5.972;2024-02-15T05:58:34;11.80;86.10
83142;DHT22;75194;51.180;5.972;2024-02-15T06:01:03;11.80;85.90
83142;DHT22;75194;51.180;5.972;2024-02-15T06:03:31;11.80;85.70
83142;DHT22;75194;51.180;5.972;2024-02-15T06:06:04;11.80;85.60
83142;DHT22;75194;51.180;5.972;2024-02-15T06:08:33;11.80;85.60
83142;DHT22;75194;51.180;5.972;2024-02-15T06:10:58;11.80;85.70
83142;DHT22;75194;51.180;5.972;2024-02-15T06:13:25;11.80;85.50
83142;DHT22;75194;51.180;5.972;2024-02-15T06:15:52;11.80;85.40
83142;DHT22;75194;51.180;5.972;2024-02-15T06:18:21;11.80;85.40
83142;DHT22;75194;51.180;5.972;2024-02-15T06:20:50;11.80;85.60
83142;DHT22;75194;51.180;5.972;2024-02-15T06:23:19;11.90;85.40
83142;DHT22;75194;51.180;5.972;2024-02-15T06:25:46;11.90;85.60
83142;DHT22;75194;51.180;5.972;2024-02-15T06:28:16;11.80;85.90
83142;DHT22;75194;51.180;5.972;2024-02-15T06:31:09;11.80;86.30
83142;DHT22;75194;51.180;5.972;2024-02-15T06:33:54;11.70;86.90
83142;DHT22;75194;51.180;5.972;2024-02-15T06:36:47;11.70;87.70
83142;DHT22;75194;51.180;5.972;2024-02-15T06:39:31;11.60;88.10
83142;DHT22;75194;51.180;5.972;2024-02-15T06:42:13;11.60;88.40
83142;DHT22;75194;51.180;5.972;2024-02-15T06:44:46;11.50;89.00
83142;DHT22;75194;51.180;5.972;2024-02-15T06:47:12;11.40;89.50
83142;DHT22;75194;51.180;5.972;2024-02-15T06:49:39;11.40;89.70
83142;DHT22;75194;51.180;5.972;2024-02-15T06:52:09;11.40;89.70
83142;DHT22;75194;51.180;5.972;2024-02-15T06:54:38;11.40;89.80
83142;DHT22;75194;51.180;5.972;2024-02-15T06:57:04;11.40;89.60
83142;DHT22;75194;51.180;5.972;2024-02-15T06:59:33;11.40;90.00
83142;DHT22;75194;51.180;5.972;2024-02-15T07:02:02;11.30;89.80
83142;DHT22;75194;51.180;5.972;2024-02-15T07:04:30;11.30;89.90
83142;DHT22;75194;51.180;5.972;2024-02-15T07:06:58;11.30;90.00
83142;DHT22;75194;51.180;5.972;2024-02-15T07:09:25;11.30;90.10
83142;DHT22;75194;51.180;5.972;2024-02-15T07:11:51;11.30;90.10
83142;DHT22;75194;51.180;5.972;2024-02-15T07:14:17;11.30;90.30
83142;DHT22;75194;51.180;5.972;2024-02-15T07:16:49;11.30;90.40
83142;DHT22;75194;51.180;5.972;2024-02-15T07:19:16;11.30;90.60
83142;DHT22;75194;51.180;5.972;2024-02-15T07:21:42;11.30;90.70
83142;DHT22;75194;51.180;5.972;2024-02-15T07:24:08;11.30;90.50
83142;DHT22;75194;51.180;5.972;2024-02-15T07:26:35;11.30;90.20
83142;DHT22;75194;51.180;5.972;2024-02-15T07:29:02;11.30;90.30
83142;DHT22;75194;51.180;5.972;2024-02-15T07:31:32;11.30;90.20
83142;DHT22;75194;51.180;5.972;2024-02-15T07:33:58;11.30;90.40
83142;DHT22;75194;51.180;5.972;2024-02-15T07:36:24;11.30;90.40
83142;DHT22;75194;51.180;5.972;2024-02-15T07:38:51;11.30;90.00
83142;DHT22;75194;51.180;5.972;2024-02-15T07:41:19;11.40;90.10
83142;DHT22;75194;51.180;5.972;2024-02-15T07:43:50;11.40;90.10
83142;DHT22;75194;51.180;5.972;2024-02-15T07:46:17;11.40;90.00
83142;DHT22;75194;51.180;5.972;2024-02-15T07:48:43;11.40;90.10
83142;DHT22;75194;51.180;5.972;2024-02-15T07:51:19;11.40;90.10
83142;DHT22;75194;51.180;5.972;2024-02-15T07:53:46;11.50;89.80
83142;DHT22;75194;51.180;5.972;2024-02-15T07:56:13;11.50;89.90
83142;DHT22;75194;51.180;5.972;2024-02-15T07:58:41;11.50;90.10
83142;DHT22;75194;51.180;5.972;2024-02-15T08:01:13;11.50;90.10
83142;DHT22;75194;51.180;5.972;2024-02-15T08:03:39;11.50;90.20
83142;DHT22;75194;51.180;5.972;2024-02-15T08:06:10;11.50;89.80
83142;DHT22;75194;51.180;5.972;2024-02-15T08:08:44;11.50;90.00
83142;DHT22;75194;51.180;5.972;2024-02-15T08:11:16;11.50;89.80
83142;DHT22;75194;51.180;5.972;2024-02-15T08:13:48;11.50;89.80
83142;DHT22;75194;51.180;5.972;2024-02-15T08:16:23;11.60;89.70
83142;DHT22;75194;51.180;5.972;2024-02-15T08:18:50;11.60;89.60
83142;DHT22;75194;51.180;5.972;2024-02-15T08:21:25;11.60;89.50
83142;DHT22;75194;51.180;5.972;2024-02-15T08:23:52;11.60;89.40
83142;DHT22;75194;51.180;5.972;2024-02-15T08:26:17;11.60;89.50
83142;DHT22;75194;51.180;5.972;2024-02-15T08:28:43;11.70;89.10
83142;DHT22;75194;51.180;5.972;2024-02-15T08:31:08;11.70;88.60
83142;DHT22;75194;51.180;5.972;2024-02-15T08:33:37;11.70;88.30
83142;DHT22;75194;51.180;5.972;2024-02-15T08:36:04;11.80;88.20
83142;DHT22;75194;51.180;5.972;2024-02-15T08:38:30;11.80;88.40
83142;DHT22;75194;51.180;5.972;2024-02-15T08:40:56;11.80;88.20
83142;DHT22;75194;51.180;5.972;2024-02-15T08:43:22;11.80;87.80
83142;DHT22;75194;51.180;5.972;2024-02-15T08:45:48;11.90;88.00
83142;DHT22;75194;51.180;5.972;2024-02-15T08:48:16;11.90;87.30
83142;DHT22;75194;51.180;5.972;2024-02-15T08:50:42;11.90;87.10
83142;DHT22;75194;51.180;5.972;2024-02-15T08:53:08;12.00;86.50
83142;DHT22;75194;51.180;5.972;2024-02-15T08:55:33;12.00;86.80
83142;DHT22;75194;51.180;5.972;2024-02-15T08:58:01;12.00;86.90
83142;DHT22;75194;51.180;5.972;2024-02-15T09:00:27;12.00;86.40
83142;DHT22;75194;51.180;5.972;2024-02-15T09:02:53;12.10;85.00
83142;DHT22;75194;51.180;5.972;2024-02-15T09:05:19;12.20;85.30
83142;DHT22;75194;51.180;5.972;2024-02-15T09:07:47;12.40;82.90
83142;DHT22;75194;51.180;5.972;2024-02-15T09:10:14;12.40;82.20
83142;DHT22;75194;51.180;5.972;2024-02-15T09:12:41;12.50;81.40
83142;DHT22;75194;51.180;5.972;2024-02-15T09:15:08;12.70;80.70
83142;DHT22;75194;51.180;5.972;2024-02-15T09:17:35;12.70;80.90
83142;DHT22;75194;51.180;5.972;2024-02-15T09:20:08;12.70;80.80
83142;DHT22;75194;51.180;5.972;2024-02-15T09:22:46;12.80;79.60
83142;DHT22;75194;51.180;5.972;2024-02-15T09:25:12;12.80;79.50
83142;DHT22;75194;51.180;5.972;2024-02-15T09:27:39;12.90;79.10
83142;DHT22;75194;51.180;5.972;2024-02-15T09:30:05;12.90;78.40
83142;DHT22;75194;51.180;5.972;2024-02-15T09:32:38;13.00;78.40
83142;DHT22;75194;51.180;5.972;2024-02-15T09:35:05;13.00;78.50
83142;DHT22;75194;51.180;5.972;2024-02-15T09:37:37;13.00;78.40
83142;DHT22;75194;51.180;5.972;2024-02-15T09:40:10;13.00;78.20
83142;DHT22;75194;51.180;5.972;2024-02-15T09:42:40;13.10;77.60
83142;DHT22;75194;51.180;5.972;2024-02-15T09:45:06;13.10;77.00
83142;DHT22;75194;51.180;5.972;2024-02-15T09:47:36;13.10;77.30
83142;DHT22;75194;51.180;5.972;2024-02-15T09:52:32;13.20;77.10
83142;DHT22;75194;51.180;5.972;2024-02-15T09:54:59;13.20;76.10
83142;DHT22;75194;51.180;5.972;2024-02-15T09:57:26;13.30;76.20
83142;DHT22;75194;51.180;5.972;2024-02-15T09:59:53;13.30;75.90
83142;DHT22;75194;51.180;5.972;2024-02-15T10:02:19;13.40;75.90
83142;DHT22;75194;51.180;5.972;2024-02-15T10:04:46;13.50;74.70
83142;DHT22;75194;51.180;5.972;2024-02-15T10:07:13;13.60;74.50
83142;DHT22;75194;51.180;5.972;2024-02-15T10:09:39;13.60;73.90
83142;DHT22;75194;51.180;5.972;2024-02-15T10:12:08;13.70;73.60
83142;DHT22;75194;51.180;5.972;2024-02-15T10:14:35;13.80;72.70
83142;DHT22;75194;51.180;5.972;2024-02-15T10:17:08;13.90;72.50
83142;DHT22;75194;51.180;5.972;2024-02-15T10:19:35;13.90;72.30
83142;DHT22;75194;51.180;5.972;2024-02-15T10:22:08;14.00;71.70
83142;DHT22;75194;51.180;5.972;2024-02-15T10:24:34;14.00;72.70
83142;DHT22;75194;51.180;5.972;2024-02-15T10:27:04;14.10;71.50
83142;DHT22;75194;51.180;5.972;2024-02-15T10:29:33;14.20;71.60
83142;DHT22;75194;51.180;5.972;2024-02-15T10:32:03;14.20;71.00
83142;DHT22;75194;51.180;5.972;2024-02-15T10:34:30;14.30;69.20
83142;DHT22;75194;51.180;5.972;2024-02-15T10:37:15;14.30;69.70
83142;DHT22;75194;51.180;5.972;2024-02-15T10:39:45;14.40;69.80
83142;DHT22;75194;51.180;5.972;2024-02-15T10:42:13;14.50;69.40
83142;DHT22;75194;51.180;5.972;2024-02-15T10:44:39;14.60;69.40
83142;DHT22;75194;51.180;5.972;2024-02-15T10:47:06;14.70;68.20
83142;DHT22;75194;51.180;5.972;2024-02-15T10:49:33;14.80;68.00
83142;DHT22;75194;51.180;5.972;2024-02-15T10:52:00;15.10;67.50
83142;DHT22;75194;51.180;5.972;2024-02-15T10:57:03;15.70;66.30
83142;DHT22;75194;51.180;5.972;2024-02-15T10:59:34;15.90;65.10
83142;DHT22;75194;51.180;5.972;2024-02-15T11:02:27;16.00;64.40
83142;DHT22;75194;51.180;5.972;2024-02-15T11:05:01;16.20;64.40
83142;DHT22;75194;51.180;5.972;2024-02-15T11:07:29;16.40;63.90
83142;DHT22;75194;51.180;5.972;2024-02-15T11:09:56;16.20;63.90
83142;DHT22;75194;51.180;5.972;2024-02-15T11:12:25;16.10;63.20
83142;DHT22;75194;51.180;5.972;2024-02-15T11:14:52;16.10;63.90
83142;DHT22;75194;51.180;5.972;2024-02-15T11:20:08;16.00;64.60
83142;DHT22;75194;51.180;5.972;2024-02-15T11:22:36;16.00;64.50
83142;DHT22;75194;51.180;5.972;2024-02-15T11:25:03;16.00;64.10
83142;DHT22;75194;51.180;5.972;2024-02-15T11:27:37;16.00;63.90
83142;DHT22;75194;51.180;5.972;2024-02-15T11:30:05;16.10;63.10
83142;DHT22;75194;51.180;5.972;2024-02-15T11:35:09;16.10;62.90
83142;DHT22;75194;51.180;5.972;2024-02-15T11:43:10;16.10;63.40
83142;DHT22;75194;51.180;5.972;2024-02-15T11:45:36;16.10;63.10
83142;DHT22;75194;51.180;5.972;2024-02-15T11:48:10;16.20;62.80
83142;DHT22;75194;51.180;5.972;2024-02-15T11:50:37;16.20;63.20
83142;DHT22;75194;51.180;5.972;2024-02-15T11:53:06;16.30;62.50
83142;DHT22;75194;51.180;5.972;2024-02-15T11:55:34;16.30;63.30
83142;DHT22;75194;51.180;5.972;2024-02-15T11:58:04;16.30;62.90
83142;DHT22;75194;51.180;5.972;2024-02-15T12:00:37;16.30;62.10
83142;DHT22;75194;51.180;5.972;2024-02-15T12:03:23;16.30;62.60
83142;DHT22;75194;51.180;5.972;2024-02-15T12:06:07;16.20;62.30
83142;DHT22;75194;51.180;5.972;2024-02-15T12:08:52;16.30;62.50
83142;DHT22;75194;51.180;5.972;2024-02-15T12:11:37;16.30;63.60
83142;DHT22;75194;51.180;5.972;2024-02-15T12:14:21;16.30;62.80
83142;DHT22;75194;51.180;5.972;2024-02-15T12:17:07;16.30;62.10
83142;DHT22;75194;51.180;5.972;2024-02-15T12:20:05;16.20;62.60
83142;DHT22;75194;51.180;5.972;2024-02-15T12:22:47;16.20;62.50
83142;DHT22;75194;51.180;5.972;2024-02-15T12:25:16;16.20;62.30
83142;DHT22;75194;51.180;5.972;2024-02-15T12:27:46;16.20;62.10
83142;DHT22;75194;51.180;5.972;2024-02-15T12:30:18;16.20;62.30
83142;DHT22;75194;51.180;5.972;2024-02-15T12:32:51;16.20;62.20
83142;DHT22;75194;51.180;5.972;2024-02-15T12:35:21;16.20;62.60
83142;DHT22;75194;51.180;5.972;2024-02-15T12:38:09;16.20;63.10
83142;DHT22;75194;51.180;5.972;2024-02-15T12:40:39;16.30;61.70
83142;DHT22;75194;51.180;5.972;2024-02-15T12:43:09;16.40;61.70
83142;DHT22;75194;51.180;5.972;2024-02-15T12:45:39;16.70;61.30
83142;DHT22;75194;51.180;5.972;2024-02-15T12:48:07;16.90;59.90
83142;DHT22;75194;51.180;5.972;2024-02-15T12:50:34;17.00;60.00
83142;DHT22;75194;51.180;5.972;2024-02-15T12:53:00;17.00;60.10
83142;DHT22;75194;51.180;5.972;2024-02-15T12:55:29;17.00;60.40
83142;DHT22;75194;51.180;5.972;2024-02-15T12:58:04;17.10;59.90
83142;DHT22;75194;51.180;5.972;2024-02-15T13:00:31;17.30;60.20
83142;DHT22;75194;51.180;5.972;2024-02-15T13:02:59;17.30;60.10
83142;DHT22;75194;51.180;5.972;2024-02-15T13:05:26;17.10;60.20
83142;DHT22;75194;51.180;5.972;2024-02-15T13:07:54;17.10;60.70
83142;DHT22;75194;51.180;5.972;2024-02-15T13:10:21;17.00;60.70
83142;DHT22;75194;51.180;5.972;2024-02-15T13:12:47;17.00;61.40
83142;DHT22;75194;51.180;5.972;2024-02-15T13:15:15;17.20;60.10
83142;DHT22;75194;51.180;5.972;2024-02-15T13:17:46;18.10;58.10
83142;DHT22;75194;51.180;5.972;2024-02-15T13:20:14;18.00;58.10
83142;DHT22;75194;51.180;5.972;2024-02-15T13:22:43;18.70;56.80
83142;DHT22;75194;51.180;5.972;2024-02-15T13:25:10;17.90;58.30
83142;DHT22;75194;51.180;5.972;2024-02-15T13:27:36;17.60;58.00
83142;DHT22;75194;51.180;5.972;2024-02-15T13:30:06;17.30;59.30
83142;DHT22;75194;51.180;5.972;2024-02-15T13:32:37;17.00;60.70
83142;DHT22;75194;51.180;5.972;2024-02-15T13:35:06;16.80;60.00
83142;DHT22;75194;51.180;5.972;2024-02-15T13:37:46;16.60;60.70
83142;DHT22;75194;51.180;5.972;2024-02-15T13:40:13;16.50;61.70
83142;DHT22;75194;51.180;5.972;2024-02-15T13:45:12;16.40;62.10
83142;DHT22;75194;51.180;5.972;2024-02-15T13:47:39;16.30;61.90
83142;DHT22;75194;51.180;5.972;2024-02-15T13:50:05;16.30;62.10
83142;DHT22;75194;51.180;5.972;2024-02-15T13:52:33;16.30;61.90
83142;DHT22;75194;51.180;5.972;2024-02-15T13:54:59;16.20;62.30
83142;DHT22;75194;51.180;5.972;2024-02-15T13:57:25;16.20;62.60
83142;DHT22;75194;51.180;5.972;2024-02-15T13:59:51;16.20;62.90
83142;DHT22;75194;51.180;5.972;2024-02-15T14:02:17;16.20;62.80
83142;DHT22;75194;51.180;5.972;2024-02-15T14:04:43;16.20;62.90
83142;DHT22;75194;51.180;5.972;2024-02-15T14:07:09;16.20;63.10
83142;DHT22;75194;51.180;5.972;2024-02-15T14:09:35;16.20;62.50
83142;DHT22;75194;51.180;5.972;2024-02-15T14:12:00;16.20;62.60
83142;DHT22;75194;51.180;5.972;2024-02-15T14:14:29;16.10;63.20
83142;DHT22;75194;51.180;5.972;2024-02-15T14:16:55;16.10;63.90
83142;DHT22;75194;51.180;5.972;2024-02-15T14:19:21;16.10;64.10
83142;DHT22;75194;51.180;5.972;2024-02-15T14:21:46;16.10;63.60
83142;DHT22;75194;51.180;5.972;2024-02-15T14:24:12;16.00;63.90
83142;DHT22;75194;51.180;5.972;2024-02-15T14:26:39;16.00;64.50
83142;DHT22;75194;51.180;5.972;2024-02-15T14:29:04;16.00;64.80
83142;DHT22;75194;51.180;5.972;2024-02-15T14:31:30;15.90;64.20
83142;DHT22;75194;51.180;5.972;2024-02-15T14:34:15;15.90;64.60
83142;DHT22;75194;51.180;5.972;2024-02-15T14:36:43;15.80;65.00
83142;DHT22;75194;51.180;5.972;2024-02-15T14:39:08;15.80;64.90
83142;DHT22;75194;51.180;5.972;2024-02-15T14:41:35;15.80;65.70
83142;DHT22;75194;51.180;5.972;2024-02-15T14:44:00;15.80;65.70
83142;DHT22;75194;51.180;5.972;2024-02-15T14:46:26;15.80;65.60
83142;DHT22;75194;51.180;5.972;2024-02-15T14:48:52;15.80;65.90
83142;DHT22;75194;51.180;5.972;2024-02-15T14:51:20;15.80;65.80
83142;DHT22;75194;51.180;5.972;2024-02-15T14:53:45;15.80;65.40
83142;DHT22;75194;51.180;5.972;2024-02-15T14:56:11;15.80;65.70
83142;DHT22;75194;51.180;5.972;2024-02-15T14:58:36;15.90;64.80
83142;DHT22;75194;51.180;5.972;2024-02-15T15:01:03;15.90;65.00
83142;DHT22;75194;51.180;5.972;2024-02-15T15:03:30;15.90;64.70
83142;DHT22;75194;51.180;5.972;2024-02-15T15:05:59;15.90;65.00
83142;DHT22;75194;51.180;5.972;2024-02-15T15:08:43;15.90;65.10
83142;DHT22;75194;51.180;5.972;2024-02-15T15:11:27;15.90;65.30
83142;DHT22;75194;51.180;5.972;2024-02-15T15:14:11;15.90;65.20
83142;DHT22;75194;51.180;5.972;2024-02-15T15:16:37;15.90;67.00
83142;DHT22;75194;51.180;5.972;2024-02-15T15:19:03;15.80;65.70
83142;DHT22;75194;51.180;5.972;2024-02-15T15:21:29;15.80;65.30
83142;DHT22;75194;51.180;5.972;2024-02-15T15:23:54;15.80;65.90
83142;DHT22;75194;51.180;5.972;2024-02-15T15:26:21;15.80;66.30
83142;DHT22;75194;51.180;5.972;2024-02-15T15:28:47;15.80;65.80
83142;DHT22;75194;51.180;5.972;2024-02-15T15:31:13;15.80;65.60
83142;DHT22;75194;51.180;5.972;2024-02-15T15:33:41;15.90;66.20
83142;DHT22;75194;51.180;5.972;2024-02-15T15:36:06;15.90;65.80
83142;DHT22;75194;51.180;5.972;2024-02-15T15:38:32;16.00;65.20
83142;DHT22;75194;51.180;5.972;2024-02-15T15:40:58;16.10;64.80
83142;DHT22;75194;51.180;5.972;2024-02-15T15:43:24;16.10;64.30
83142;DHT22;75194;51.180;5.972;2024-02-15T15:45:50;16.10;64.80
83142;DHT22;75194;51.180;5.972;2024-02-15T15:48:20;16.10;63.70
83142;DHT22;75194;51.180;5.972;2024-02-15T15:50:46;16.10;62.00
83142;DHT22;75194;51.180;5.972;2024-02-15T15:53:13;16.10;62.20
83142;DHT22;75194;51.180;5.972;2024-02-15T15:55:38;16.10;61.40